createdAt,value
2022-08-10T00:01:52.690Z,0.00
2022-08-10T00:04:22.724Z,1.00
2022-08-10T00:06:53.642Z,0.00
2022-08-10T00:09:22.440Z,0.00
2022-08-10T00:11:50.528Z,0.50
2022-08-10T00:14:18.450Z,0.00
2022-08-10T00:16:46.042Z,0.00
2022-08-10T00:19:16.646Z,0.00
2022-08-10T00:21:47.216Z,1.00
2022-08-10T00:24:15.087Z,0.00
2022-08-10T00:27:51.914Z,0.00
2022-08-10T00:29:31.922Z,0.25
2022-08-10T00:31:59.882Z,0.00
2022-08-10T00:34:29.210Z,0.00
2022-08-10T00:36:57.398Z,0.00
2022-08-10T00:39:26.137Z,0.75
2022-08-10T00:42:07.695Z,0.00
2022-08-10T00:44:42.001Z,0.00
2022-08-10T00:47:36.431Z,1.00
2022-08-10T00:49:59.124Z,0.00
2022-08-10T00:52:27.924Z,0.00
2022-08-10T00:54:56.362Z,0.75
2022-08-10T00:57:25.841Z,0.50
2022-08-10T00:59:57.917Z,0.00
2022-08-10T01:02:29.796Z,0.00
2022-08-10T01:05:03.212Z,0.00
2022-08-10T01:07:57.241Z,0.00
2022-08-10T01:10:43.625Z,0.25
2022-08-10T01:13:33.326Z,0.00
2022-08-10T01:16:15.983Z,0.00
2022-08-10T01:18:54.219Z,1.00
2022-08-10T01:21:41.961Z,0.75
2022-08-10T01:24:46.924Z,0.00
2022-08-10T01:27:43.556Z,0.00
2022-08-10T01:30:15.723Z,0.00
2022-08-10T01:32:57.287Z,0.00
2022-08-10T01:35:36.895Z,0.00
2022-08-10T01:38:25.763Z,1.00
2022-08-10T01:41:03.535Z,0.00
2022-08-10T01:43:33.883Z,0.00
2022-08-10T01:46:04.563Z,0.00
2022-08-10T01:48:40.255Z,0.00
2022-08-10T01:51:33.158Z,0.60
2022-08-10T01:54:12.626Z,0.00
2022-08-10T01:56:45.721Z,0.40
2022-08-10T01:59:23.839Z,0.00
2022-08-10T02:01:56.687Z,0.60
2022-08-10T02:04:27.274Z,0.00
2022-08-10T02:06:56.362Z,0.00
2022-08-10T02:09:34.802Z,0.00
2022-08-10T02:12:08.869Z,1.00
2022-08-10T02:14:45.760Z,0.20
2022-08-10T02:17:59.593Z,0.00
2022-08-10T02:20:34.404Z,0.40
2022-08-10T02:23:13.122Z,1.80
2022-08-10T02:25:43.774Z,1.00
2022-08-10T02:28:29.917Z,0.25
2022-08-10T02:31:11.730Z,0.00
2022-08-10T02:33:56.677Z,0.00
2022-08-10T02:36:29.775Z,1.20
2022-08-10T02:39:03.787Z,0.00
2022-08-10T02:45:02.897Z,1.00
2022-08-10T02:45:26.115Z,1.00
2022-08-10T02:48:02.843Z,0.20
2022-08-10T02:50:38.101Z,1.20
2022-08-10T02:53:07.443Z,2.40
2022-08-10T02:56:11.203Z,2.60
2022-08-10T02:58:44.562Z,4.80
2022-08-10T03:01:16.601Z,1.60
2022-08-10T03:04:12.417Z,2.20
2022-08-10T03:06:44.404Z,1.60
2022-08-10T03:09:15.401Z,2.00
2022-08-10T03:12:37.603Z,1.75
2022-08-10T03:14:34.561Z,3.40
2022-08-10T03:17:03.519Z,2.00
2022-08-10T03:20:33.614Z,1.75
2022-08-10T03:22:22.998Z,1.50
2022-08-10T03:24:52.759Z,1.00
2022-08-10T03:27:22.921Z,2.60
2022-08-10T03:30:29.784Z,2.00
2022-08-10T03:32:41.056Z,2.00
2022-08-10T03:35:09.882Z,3.00
2022-08-10T03:37:38.126Z,2.00
2022-08-10T03:40:07.647Z,2.50
2022-08-10T03:42:38.800Z,2.00
2022-08-10T03:45:09.720Z,2.75
2022-08-10T03:47:41.998Z,1.00
2022-08-10T03:50:45.095Z,2.75
2022-08-10T03:53:01.327Z,1.00
2022-08-10T03:56:27.480Z,2.00
2022-08-10T03:58:17.800Z,3.25
2022-08-10T04:00:47.247Z,1.75
2022-08-10T04:03:15.092Z,3.00
2022-08-10T04:05:42.999Z,3.00
2022-08-10T04:08:10.441Z,3.00
2022-08-10T04:10:38.080Z,3.25
2022-08-10T04:13:05.722Z,4.50
2022-08-10T04:15:33.480Z,8.50
2022-08-10T04:18:05.902Z,4.75
2022-08-10T04:20:51.033Z,3.00
2022-08-10T04:23:27.725Z,4.75
2022-08-10T04:25:56.296Z,7.00
2022-08-10T04:28:26.642Z,6.50
2022-08-10T04:30:55.541Z,7.00
2022-08-10T04:33:25.058Z,1.50
2022-08-10T04:35:53.920Z,4.75
2022-08-10T04:38:23.924Z,4.25
2022-08-10T04:40:52.402Z,3.75
2022-08-10T04:43:20.603Z,7.50
2022-08-10T04:45:51.711Z,6.00
2022-08-10T04:48:43.640Z,4.25
2022-08-10T04:51:18.309Z,4.00
2022-08-10T04:54:02.618Z,9.50
2022-08-10T04:56:36.645Z,5.50
2022-08-10T04:59:06.303Z,9.50
2022-08-10T05:02:22.035Z,5.50
2022-08-10T05:04:35.055Z,7.00
2022-08-10T05:07:07.472Z,5.00
2022-08-10T05:10:01.255Z,2.75
2022-08-10T05:12:23.374Z,3.75
2022-08-10T05:14:52.442Z,5.25
2022-08-10T05:17:23.601Z,4.00
2022-08-10T05:20:01.814Z,3.80
2022-08-10T05:22:34.693Z,3.00
2022-08-10T05:25:02.529Z,3.40
2022-08-10T05:27:30.402Z,2.80
2022-08-10T05:30:01.737Z,2.00
2022-08-10T05:32:56.389Z,1.00
2022-08-10T05:35:22.564Z,2.60
2022-08-10T05:38:09.490Z,2.00
2022-08-10T05:40:46.071Z,2.00
2022-08-10T05:43:17.048Z,1.60
2022-08-10T05:46:18.545Z,1.60
2022-08-10T05:48:41.994Z,1.00
2022-08-10T05:51:22.754Z,2.00
2022-08-10T05:54:01.104Z,1.00
2022-08-10T05:56:57.118Z,1.80
2022-08-10T06:00:11.021Z,1.80
2022-08-10T06:02:32.983Z,1.00
2022-08-10T06:05:02.949Z,0.20
2022-08-10T06:07:31.423Z,0.60
2022-08-10T06:10:01.207Z,1.00
2022-08-10T06:12:31.444Z,1.00
2022-08-10T06:15:05.896Z,0.00
2022-08-10T06:17:38.930Z,0.00
2022-08-10T06:20:07.536Z,0.00
2022-08-10T06:22:36.025Z,1.20
2022-08-10T06:25:37.679Z,0.00
2022-08-10T06:27:55.078Z,1.00
2022-08-10T06:30:24.931Z,1.00
2022-08-10T06:32:56.022Z,0.00
2022-08-10T06:35:28.956Z,0.20
2022-08-10T06:38:03.188Z,0.00
2022-08-10T06:40:35.702Z,0.00
2022-08-10T06:43:08.545Z,0.00
2022-08-10T06:46:07.851Z,1.00
2022-08-10T06:48:57.473Z,0.00
2022-08-10T06:51:31.051Z,0.00
2022-08-10T06:54:06.301Z,0.00
2022-08-10T06:56:46.874Z,0.20
2022-08-10T06:59:41.055Z,0.20
2022-08-10T07:02:25.983Z,1.00
2022-08-10T07:05:01.241Z,1.80
2022-08-10T07:07:33.612Z,1.00
2022-08-10T07:10:02.084Z,1.00
2022-08-10T07:12:32.254Z,0.00
2022-08-10T07:15:08.901Z,0.00
2022-08-10T07:17:39.682Z,1.00
2022-08-10T07:20:10.137Z,0.00
2022-08-10T07:23:01.505Z,0.00
2022-08-10T07:25:29.722Z,0.00
2022-08-10T07:28:01.866Z,0.00
2022-08-10T07:30:33.577Z,0.00
2022-08-10T07:33:02.843Z,0.00
2022-08-10T07:35:42.547Z,0.00
2022-08-10T07:38:17.701Z,0.00
2022-08-10T07:40:49.144Z,0.00
2022-08-10T07:43:19.456Z,0.00
2022-08-10T07:45:48.658Z,0.00
2022-08-10T07:48:24.581Z,0.00
2022-08-10T07:50:58.142Z,0.00
2022-08-10T07:53:33.320Z,0.00
2022-08-10T07:56:20.923Z,0.00
2022-08-10T07:59:02.232Z,0.00
2022-08-10T08:01:34.047Z,0.20
2022-08-10T08:04:10.802Z,0.40
2022-08-10T08:06:41.977Z,0.20
2022-08-10T08:09:11.355Z,0.00
2022-08-10T08:11:42.712Z,0.00
2022-08-10T08:14:12.413Z,0.00
2022-08-10T08:16:52.457Z,0.00
2022-08-10T08:19:26.752Z,0.00
2022-08-10T08:24:14.785Z,0.20
2022-08-10T08:24:47.525Z,0.00
2022-08-10T08:27:17.946Z,0.00
2022-08-10T08:29:48.842Z,0.00
2022-08-10T08:32:24.475Z,0.00
2022-08-10T08:35:02.578Z,0.00
2022-08-10T08:38:31.462Z,0.00
2022-08-10T08:40:34.054Z,1.20
2022-08-10T08:43:09.862Z,0.00
2022-08-10T08:45:50.862Z,0.00
2022-08-10T08:48:30.646Z,0.00
2022-08-10T08:52:09.292Z,0.80
2022-08-10T08:54:37.889Z,0.00
2022-08-10T08:57:49.788Z,0.00
2022-08-10T09:00:44.042Z,1.20
2022-08-10T09:03:30.176Z,0.00
2022-08-10T09:06:35.234Z,0.80
2022-08-10T09:09:41.501Z,0.20
2022-08-10T09:12:31.221Z,1.00
2022-08-10T09:15:40.192Z,0.40
2022-08-10T09:18:05.883Z,0.00
2022-08-10T09:20:56.203Z,0.20
2022-08-10T09:24:05.448Z,0.00
2022-08-10T09:26:50.508Z,0.80
2022-08-10T09:29:27.987Z,0.40
2022-08-10T09:35:43.299Z,1.40
2022-08-10T09:36:22.961Z,1.20
2022-08-10T09:38:29.318Z,0.00
2022-08-10T09:41:30.738Z,1.60
2022-08-10T09:44:04.629Z,1.00
2022-08-10T09:47:05.000Z,0.40
2022-08-10T09:50:07.215Z,0.20
2022-08-10T09:53:12.103Z,0.00
2022-08-10T09:56:19.294Z,1.00
2022-08-10T09:59:27.262Z,1.00
2022-08-10T10:02:35.632Z,1.00
2022-08-10T10:05:19.052Z,1.00
2022-08-10T10:07:55.599Z,0.00
2022-08-10T10:10:33.738Z,0.80
2022-08-10T10:13:10.510Z,0.40
2022-08-10T10:15:48.823Z,0.00
2022-08-10T10:18:34.953Z,0.00
2022-08-10T10:21:05.922Z,0.00
2022-08-10T10:24:22.341Z,0.60
2022-08-10T10:27:16.545Z,0.00
2022-08-10T10:30:05.716Z,0.20
2022-08-10T10:32:55.857Z,0.00
2022-08-10T10:35:30.191Z,2.00
2022-08-10T10:38:01.806Z,0.00
2022-08-10T10:40:53.158Z,0.00
2022-08-10T10:43:47.860Z,0.00
2022-08-10T10:46:49.160Z,0.80
2022-08-10T10:49:37.815Z,0.00
2022-08-10T10:52:24.201Z,1.00
2022-08-10T10:55:06.173Z,1.00
2022-08-10T10:57:58.535Z,0.00
2022-08-10T11:00:59.116Z,0.20
2022-08-10T11:04:08.244Z,0.20
2022-08-10T11:07:13.165Z,0.00
2022-08-10T11:10:05.227Z,0.00
2022-08-10T11:12:56.376Z,1.20
2022-08-10T11:15:43.174Z,0.00
2022-08-10T11:18:55.339Z,2.00
2022-08-10T11:21:47.550Z,4.00
2022-08-10T11:24:42.958Z,1.00
2022-08-10T11:27:29.641Z,1.00
2022-08-10T11:30:06.094Z,1.00
2022-08-10T11:33:02.527Z,0.80
2022-08-10T11:35:49.009Z,0.00
2022-08-10T11:38:57.545Z,1.00
2022-08-10T11:42:12.044Z,0.00
2022-08-10T11:44:43.311Z,1.00
2022-08-10T11:47:15.592Z,0.00
2022-08-10T11:50:07.652Z,0.80
2022-08-10T11:52:58.047Z,0.20
2022-08-10T11:55:32.965Z,1.00
2022-08-10T11:58:57.333Z,0.40
2022-08-10T12:01:32.388Z,0.00
2022-08-10T12:04:12.182Z,0.00
2022-08-10T12:06:55.316Z,0.60
2022-08-10T12:10:11.669Z,0.20
2022-08-10T12:12:15.696Z,0.60
2022-08-10T12:15:07.448Z,1.00
2022-08-10T12:17:44.278Z,0.40
2022-08-10T12:20:21.761Z,1.00
2022-08-10T12:22:57.318Z,0.60
2022-08-10T12:25:56.031Z,0.40
2022-08-10T12:28:50.188Z,1.00
2022-08-10T12:31:30.365Z,0.00
2022-08-10T12:34:29.714Z,0.00
2022-08-10T12:37:12.469Z,1.00
2022-08-10T12:40:35.602Z,0.20
2022-08-10T12:44:04.778Z,0.20
2022-08-10T12:46:22.009Z,0.00
2022-08-10T12:49:01.086Z,0.00
2022-08-10T12:51:31.815Z,0.20
2022-08-10T12:54:16.614Z,0.00
2022-08-10T12:57:06.063Z,0.40
2022-08-10T12:59:43.343Z,0.00
2022-08-10T13:02:28.179Z,0.80
2022-08-10T13:04:59.863Z,1.00
2022-08-10T13:08:25.153Z,0.20
2022-08-10T13:10:23.794Z,0.00
2022-08-10T13:12:55.352Z,0.60
2022-08-10T13:15:50.147Z,0.00
2022-08-10T13:18:41.624Z,0.00
2022-08-10T13:21:19.704Z,1.00
2022-08-10T13:24:04.952Z,0.00
2022-08-10T13:27:10.883Z,0.00
2022-08-10T13:29:36.485Z,0.00
2022-08-10T13:32:09.962Z,0.40
2022-08-10T13:34:45.206Z,1.00
2022-08-10T13:37:16.516Z,1.00
2022-08-10T13:39:57.682Z,0.20
2022-08-10T13:42:37.754Z,1.00
2022-08-10T13:45:22.779Z,1.00
2022-08-10T13:47:54.940Z,1.00
2022-08-10T13:50:33.499Z,0.00
2022-08-10T13:53:15.172Z,0.40
2022-08-10T13:55:56.087Z,1.00
2022-08-10T13:58:34.616Z,0.80
2022-08-10T14:01:14.235Z,0.00
2022-08-10T14:03:44.564Z,0.40
2022-08-10T14:06:15.623Z,0.00
2022-08-10T14:09:09.254Z,0.60
2022-08-10T14:11:39.986Z,0.20
2022-08-10T14:14:19.485Z,0.00
2022-08-10T14:16:49.581Z,0.00
2022-08-10T14:19:23.916Z,0.00
2022-08-10T14:21:52.982Z,1.00
2022-08-10T14:24:23.197Z,0.80
2022-08-10T14:26:57.397Z,0.00
2022-08-10T14:29:26.462Z,0.20
2022-08-10T14:32:00.716Z,0.00
2022-08-10T14:36:15.435Z,0.60
2022-08-10T14:37:43.615Z,0.00
2022-08-10T14:40:16.121Z,0.40
2022-08-10T14:43:09.935Z,0.60
2022-08-10T14:45:40.097Z,0.40
2022-08-10T14:48:31.904Z,0.00
2022-08-10T14:51:02.320Z,0.60
2022-08-10T14:53:34.858Z,1.00
2022-08-10T14:56:11.223Z,0.00
2022-08-10T14:59:05.979Z,0.00
2022-08-10T15:02:00.963Z,0.00
2022-08-10T15:04:29.131Z,0.60
2022-08-10T15:07:01.314Z,1.00
2022-08-10T15:10:00.747Z,0.40
2022-08-10T15:12:25.032Z,1.00
2022-08-10T15:15:00.666Z,0.80
2022-08-10T15:17:37.847Z,1.00
2022-08-10T15:20:21.356Z,0.00
2022-08-10T15:23:01.248Z,0.40
2022-08-10T15:25:30.749Z,0.00
2022-08-10T15:28:08.433Z,0.00
2022-08-10T15:30:41.258Z,0.40
2022-08-10T15:34:03.203Z,0.00
2022-08-10T15:36:40.609Z,0.00
2022-08-10T15:40:21.007Z,0.40
2022-08-10T15:42:18.057Z,1.00
2022-08-10T15:44:50.125Z,0.00
2022-08-10T15:47:20.627Z,0.40
2022-08-10T15:50:04.902Z,0.00
2022-08-10T15:53:01.854Z,0.00
2022-08-10T15:55:41.254Z,1.00
2022-08-10T15:58:39.701Z,0.00
2022-08-10T16:02:13.158Z,0.00
2022-08-10T16:04:37.214Z,0.00
2022-08-10T16:07:12.440Z,0.00
2022-08-10T16:10:26.620Z,0.00
2022-08-10T16:12:45.367Z,0.00
2022-08-10T16:15:30.401Z,0.40
2022-08-10T16:18:05.105Z,0.00
2022-08-10T16:20:55.034Z,0.80
2022-08-10T16:23:31.306Z,0.00
2022-08-10T16:26:26.302Z,0.60
2022-08-10T16:29:04.624Z,0.00
2022-08-10T16:31:35.082Z,0.00
2022-08-10T16:34:06.882Z,0.00
2022-08-10T16:36:42.244Z,0.00
2022-08-10T16:39:15.583Z,0.00
2022-08-10T16:42:04.919Z,0.00
2022-08-10T16:45:00.962Z,1.00
2022-08-10T16:47:30.045Z,0.40
2022-08-10T16:50:10.663Z,0.00
2022-08-10T16:52:39.998Z,0.00
2022-08-10T16:55:24.317Z,0.00
2022-08-10T16:58:13.131Z,0.00
2022-08-10T17:00:44.707Z,0.40
2022-08-10T17:03:22.619Z,0.20
2022-08-10T17:06:11.170Z,0.20
2022-08-10T17:08:48.676Z,0.20
2022-08-10T17:11:18.774Z,0.40
2022-08-10T17:13:47.695Z,0.00
2022-08-10T17:16:17.817Z,0.60
2022-08-10T17:18:48.523Z,0.00
2022-08-10T17:21:22.139Z,0.00
2022-08-10T17:23:56.362Z,0.60
2022-08-10T17:26:35.269Z,0.00
2022-08-10T17:29:58.762Z,0.60
2022-08-10T17:32:24.738Z,0.00
2022-08-10T17:34:59.196Z,0.00
2022-08-10T17:37:31.936Z,0.00
2022-08-10T17:40:12.954Z,0.00
2022-08-10T17:42:41.139Z,0.00
2022-08-10T17:45:46.230Z,0.00
2022-08-10T17:48:08.311Z,1.00
2022-08-10T17:50:38.379Z,0.00
2022-08-10T17:53:13.637Z,0.00
2022-08-10T17:55:44.654Z,0.25
2022-08-10T17:58:25.338Z,0.00
2022-08-10T18:01:38.973Z,0.00
2022-08-10T18:03:56.692Z,0.50
2022-08-10T18:06:25.295Z,0.00
2022-08-10T18:08:58.853Z,0.00
2022-08-10T18:11:29.198Z,0.00
2022-08-10T18:14:01.861Z,0.50
2022-08-10T18:16:34.041Z,0.75
2022-08-10T18:19:07.867Z,0.00
2022-08-10T18:21:43.883Z,0.00
2022-08-10T18:24:18.354Z,0.25
2022-08-10T18:26:51.380Z,0.00
2022-08-10T18:29:27.759Z,0.25
2022-08-10T18:31:59.128Z,1.25
2022-08-10T18:34:28.636Z,0.00
2022-08-10T18:36:57.256Z,1.25
2022-08-10T18:39:37.165Z,0.50
2022-08-10T18:42:10.127Z,0.00
2022-08-10T18:45:07.406Z,0.50
2022-08-10T18:47:39.926Z,0.00
2022-08-10T18:50:44.176Z,0.25
2022-08-10T18:53:31.194Z,0.00
2022-08-10T18:56:29.105Z,1.00
2022-08-10T18:59:38.796Z,0.00
2022-08-10T19:03:02.962Z,1.00
2022-08-10T19:05:48.645Z,0.50
2022-08-10T19:08:49.055Z,0.25
2022-08-10T19:11:54.237Z,0.25
2022-08-10T19:14:44.742Z,0.00
2022-08-10T19:18:02.915Z,0.50
2022-08-10T19:20:48.747Z,1.00
2022-08-10T19:23:44.012Z,0.00
2022-08-10T19:26:44.409Z,0.25
2022-08-10T19:29:13.963Z,0.50
2022-08-10T19:32:20.733Z,0.00
2022-08-10T19:34:51.789Z,0.25
2022-08-10T19:37:41.386Z,1.00
2022-08-10T19:40:43.317Z,1.00
2022-08-10T19:43:59.208Z,1.00
2022-08-10T19:46:28.683Z,1.00
2022-08-10T19:49:23.940Z,1.00
2022-08-10T19:52:11.233Z,1.00
2022-08-10T19:54:39.324Z,1.00
2022-08-10T19:57:36.502Z,0.50
2022-08-10T20:00:18.711Z,2.00
2022-08-10T20:03:00.564Z,1.00
2022-08-10T20:05:36.457Z,1.25
2022-08-10T20:08:20.797Z,0.75
2022-08-10T20:11:04.339Z,0.50
2022-08-10T20:13:40.652Z,1.00
2022-08-10T20:16:21.475Z,1.00
2022-08-10T20:19:13.880Z,1.00
2022-08-10T20:21:50.136Z,0.50
2022-08-10T20:24:29.892Z,2.00
2022-08-10T20:27:18.052Z,1.25
2022-08-10T20:30:02.797Z,1.00
2022-08-10T20:32:58.255Z,1.00
2022-08-10T20:35:31.524Z,2.00
2022-08-10T20:38:12.797Z,2.00
2022-08-10T20:40:47.396Z,1.00
2022-08-10T20:43:17.972Z,2.00
2022-08-10T20:46:09.533Z,3.75
2022-08-10T20:48:46.634Z,2.00
2022-08-10T20:51:18.882Z,1.00
2022-08-10T20:53:52.336Z,1.00
2022-08-10T20:57:54.076Z,1.50
2022-08-10T21:00:10.764Z,2.00
2022-08-10T21:02:59.604Z,2.75
2022-08-10T21:05:40.632Z,0.25
2022-08-10T21:08:51.195Z,1.00
2022-08-10T21:12:07.395Z,2.00
2022-08-10T21:15:05.415Z,1.00
2022-08-10T21:18:14.547Z,1.50
2022-08-10T21:21:07.935Z,1.75
2022-08-10T21:23:39.402Z,2.25
2022-08-10T21:26:15.567Z,2.00
2022-08-10T21:29:21.243Z,2.00
2022-08-10T21:32:03.670Z,1.50
2022-08-10T21:35:05.289Z,1.25
2022-08-10T21:37:58.761Z,1.00
2022-08-10T21:41:17.187Z,1.50
2022-08-10T21:44:16.486Z,2.50
2022-08-10T21:47:07.514Z,1.00
2022-08-10T21:50:17.983Z,1.25
2022-08-10T21:53:52.979Z,1.75
2022-08-10T21:57:43.529Z,2.00
2022-08-10T22:03:39.291Z,2.00
2022-08-10T22:06:30.083Z,2.50
2022-08-10T22:09:26.701Z,2.00
2022-08-10T22:12:25.092Z,1.00
2022-08-10T22:16:03.344Z,1.75
2022-08-10T22:18:53.883Z,2.00
2022-08-10T22:21:54.627Z,1.50
2022-08-10T22:24:59.658Z,1.75
2022-08-10T22:27:57.843Z,1.75
2022-08-10T22:31:22.903Z,1.00
2022-08-10T22:34:48.130Z,1.50
2022-08-10T22:38:07.883Z,0.75
2022-08-10T22:40:55.015Z,1.00
2022-08-10T22:43:48.601Z,0.50
2022-08-10T22:46:53.455Z,1.00
2022-08-10T22:49:23.427Z,1.25
2022-08-10T22:52:06.794Z,1.00
2022-08-10T22:55:03.582Z,1.25
2022-08-10T22:57:50.115Z,1.00
2022-08-10T23:00:30.960Z,0.50
2022-08-10T23:03:22.166Z,1.50
2022-08-10T23:05:54.151Z,1.00
2022-08-10T23:08:34.096Z,1.00
2022-08-10T23:11:05.240Z,1.00
2022-08-10T23:13:37.380Z,0.50
2022-08-10T23:16:33.114Z,0.00
2022-08-10T23:19:22.960Z,1.00
2022-08-10T23:22:04.479Z,0.50
2022-08-10T23:24:55.821Z,0.50
2022-08-10T23:27:38.569Z,1.60
2022-08-10T23:30:17.970Z,1.00
2022-08-10T23:32:49.188Z,1.20
2022-08-10T23:36:31.576Z,1.00
2022-08-10T23:38:09.620Z,0.00
2022-08-10T23:40:38.428Z,1.00
2022-08-10T23:43:07.358Z,1.20
2022-08-10T23:45:52.385Z,1.00
2022-08-10T23:48:34.700Z,0.50
2022-08-10T23:51:17.073Z,0.80
2022-08-10T23:53:48.805Z,1.40
2022-08-10T23:56:19.816Z,1.40
2022-08-10T23:58:56.213Z,0.00
